UDD weather

Bermuda Dunes Airport
Palm Springs, California, United States

Public forecast

Using degrees Fahrenheit for public forecast. Weather courtesy of forecast.io.

Closest aviation weather report (METAR) to Bermuda Dunes Airport

Closest report is Jacqueline Cochran Regional Airport, 9.3 nm (17.2 km) SE. Retrieved 2019/12/11 01:52 UTC (46 minutes ago):

KTRM 110152Z AUTO 05004KT 10SM CLR 15/07 A3017 RMK AO2 SLP217 T01500072

Closest aviation forecast (TAF) to Bermuda Dunes Airport

Closest forecast is Jacqueline Cochran Regional Airport, 9.3 nm (17.2 km) SE. Retrieved 2019-12-11 00:33 UTC (2 hours ago):

TAF KTRM 102331Z 1100/1124 VRB04KT P6SM BKN250